createdAt,value
2019-05-09T00:01:15.859Z,12.76
2019-05-09T00:03:45.933Z,12.77
2019-05-09T00:06:16.030Z,12.75
2019-05-09T00:08:46.096Z,12.77
2019-05-09T00:11:16.201Z,12.79
2019-05-09T00:13:46.265Z,12.80
2019-05-09T00:16:16.365Z,12.75
2019-05-09T00:18:46.449Z,12.76
2019-05-09T00:21:21.304Z,12.79
2019-05-09T00:23:51.377Z,12.82
2019-05-09T00:26:23.564Z,12.79
2019-05-09T00:28:54.852Z,12.84
2019-05-09T00:31:29.709Z,12.85
2019-05-09T00:34:03.940Z,12.80
2019-05-09T00:36:33.501Z,12.85
2019-05-09T00:39:04.200Z,12.85
2019-05-09T00:41:34.551Z,12.86
2019-05-09T00:44:13.856Z,12.86
2019-05-09T00:46:54.591Z,12.87
2019-05-09T00:49:26.375Z,12.86
2019-05-09T00:51:56.420Z,12.85
2019-05-09T00:54:26.504Z,12.88
2019-05-09T00:56:56.560Z,12.87
2019-05-09T00:59:26.665Z,12.89
2019-05-09T01:01:56.717Z,12.89
2019-05-09T01:04:26.820Z,12.87
2019-05-09T01:06:56.869Z,12.88
2019-05-09T01:09:27.968Z,12.88
2019-05-09T01:11:58.213Z,12.88
2019-05-09T01:14:29.658Z,12.86
2019-05-09T01:17:00.325Z,12.84
2019-05-09T01:19:33.725Z,12.81
2019-05-09T01:22:04.949Z,12.75
2019-05-09T01:24:35.067Z,12.76
2019-05-09T01:27:05.145Z,12.73
2019-05-09T01:29:35.247Z,12.69
2019-05-09T01:32:14.396Z,12.69
2019-05-09T01:34:44.673Z,12.69
2019-05-09T01:37:14.745Z,12.65
2019-05-09T01:39:44.778Z,12.63
2019-05-09T01:42:14.846Z,12.63
2019-05-09T01:44:44.896Z,12.62
2019-05-09T01:47:14.977Z,12.54
2019-05-09T01:49:45.028Z,12.53
2019-05-09T01:52:15.117Z,12.52
2019-05-09T01:54:47.323Z,12.49
2019-05-09T01:57:17.435Z,12.46
2019-05-09T01:59:47.481Z,12.43
2019-05-09T02:02:17.571Z,12.42
2019-05-09T02:04:47.614Z,12.41
2019-05-09T02:07:17.709Z,12.41
2019-05-09T02:09:47.741Z,12.40
2019-05-09T02:12:17.848Z,12.34
2019-05-09T02:14:49.468Z,12.35
2019-05-09T02:17:37.275Z,12.27
2019-05-09T02:20:07.813Z,12.25
2019-05-09T02:22:37.919Z,12.24
2019-05-09T02:25:09.822Z,12.25
2019-05-09T02:27:39.927Z,12.26
2019-05-09T02:30:15.277Z,12.27
2019-05-09T02:32:44.999Z,12.25
2019-05-09T02:35:15.713Z,12.26
2019-05-09T02:37:49.518Z,12.27
2019-05-09T02:40:18.733Z,12.26
2019-05-09T02:42:49.425Z,12.26
2019-05-09T02:45:20.229Z,12.20
2019-05-09T02:47:50.335Z,12.21
2019-05-09T02:50:20.425Z,12.21
2019-05-09T02:52:50.535Z,12.14
2019-05-09T02:55:20.680Z,12.14
2019-05-09T02:57:52.367Z,12.10
2019-05-09T03:00:24.794Z,12.14
2019-05-09T03:03:02.396Z,12.09
2019-05-09T03:05:32.468Z,12.07
2019-05-09T03:08:02.579Z,12.05
2019-05-09T03:10:32.645Z,12.04
2019-05-09T03:13:02.757Z,12.03
2019-05-09T03:15:34.610Z,12.03
2019-05-09T03:18:04.713Z,12.06
2019-05-09T03:20:39.437Z,12.07
2019-05-09T03:23:09.754Z,12.07
2019-05-09T03:25:40.778Z,12.05
2019-05-09T03:28:28.213Z,12.06
2019-05-09T03:30:59.392Z,12.04
2019-05-09T03:33:35.285Z,12.05
2019-05-09T03:36:01.462Z,12.06
2019-05-09T03:38:31.580Z,12.06
2019-05-09T03:41:01.671Z,12.06
2019-05-09T03:43:31.790Z,12.07
2019-05-09T03:46:03.430Z,12.05
2019-05-09T03:48:36.883Z,12.03
2019-05-09T03:51:08.129Z,12.03
2019-05-09T03:53:38.374Z,11.98
2019-05-09T03:56:10.008Z,11.97
2019-05-09T03:58:40.099Z,11.93
2019-05-09T04:01:10.785Z,12.01
2019-05-09T04:03:41.259Z,12.03
2019-05-09T04:06:11.329Z,12.03
2019-05-09T04:08:41.422Z,11.97
2019-05-09T04:11:11.509Z,11.98
2019-05-09T04:13:43.177Z,11.98
2019-05-09T04:16:13.267Z,12.00
2019-05-09T04:18:43.387Z,11.97
2019-05-09T04:21:13.468Z,11.93
2019-05-09T04:23:43.565Z,11.94
2019-05-09T04:26:21.092Z,11.94
2019-05-09T04:28:51.198Z,11.91
2019-05-09T04:31:21.281Z,11.93
2019-05-09T04:33:51.331Z,11.94
2019-05-09T04:36:22.969Z,11.92
2019-05-09T04:38:53.045Z,11.89
2019-05-09T04:41:24.210Z,11.88
2019-05-09T04:43:57.361Z,11.88
2019-05-09T04:46:27.733Z,11.85
2019-05-09T04:49:00.959Z,11.83
2019-05-09T04:51:29.790Z,11.93
2019-05-09T04:54:00.870Z,11.96
2019-05-09T04:56:32.520Z,11.97
2019-05-09T04:59:02.604Z,11.91
2019-05-09T05:01:40.266Z,11.99
2019-05-09T05:04:10.347Z,12.00
2019-05-09T05:06:40.661Z,12.02
2019-05-09T05:09:10.734Z,12.01
2019-05-09T05:11:40.848Z,12.09
2019-05-09T05:14:12.492Z,12.12
2019-05-09T05:16:42.603Z,12.12
2019-05-09T05:19:12.671Z,12.11
2019-05-09T05:21:42.766Z,12.20
2019-05-09T05:24:27.747Z,12.27
2019-05-09T05:26:57.965Z,12.30
2019-05-09T05:29:28.353Z,12.37
2019-05-09T05:32:00.029Z,12.44
2019-05-09T05:34:31.683Z,12.43
2019-05-09T05:37:01.829Z,12.46
2019-05-09T05:39:31.903Z,12.48
2019-05-09T05:42:02.389Z,12.56
2019-05-09T05:44:32.468Z,12.60
2019-05-09T05:47:20.908Z,12.60
2019-05-09T05:49:50.972Z,12.64
2019-05-09T05:52:21.078Z,12.70
2019-05-09T05:54:51.157Z,12.75
2019-05-09T05:57:21.275Z,12.76
2019-05-09T05:59:51.375Z,12.78
2019-05-09T06:02:21.466Z,12.74
2019-05-09T06:04:51.551Z,12.67
2019-05-09T06:07:21.655Z,12.72
2019-05-09T06:09:51.741Z,12.84
2019-05-09T06:12:21.839Z,12.84
2019-05-09T06:14:51.928Z,12.84
2019-05-09T06:17:22.026Z,12.79
2019-05-09T06:19:52.115Z,12.75
2019-05-09T06:22:22.223Z,12.77
2019-05-09T06:24:52.307Z,12.71
2019-05-09T06:27:22.427Z,12.74
2019-05-09T06:29:52.472Z,12.74
2019-05-09T06:32:22.568Z,12.75
2019-05-09T06:34:52.612Z,12.76
2019-05-09T06:37:22.725Z,12.83
2019-05-09T06:39:52.762Z,12.80
2019-05-09T06:42:25.396Z,12.83
2019-05-09T06:45:12.621Z,12.82
2019-05-09T06:47:44.285Z,12.80
2019-05-09T06:50:15.907Z,12.80
2019-05-09T06:52:47.935Z,12.80
2019-05-09T06:55:17.741Z,12.81
2019-05-09T06:57:48.873Z,12.71
2019-05-09T07:00:37.754Z,12.71
2019-05-09T07:03:18.491Z,12.71
2019-05-09T07:05:53.196Z,12.75
2019-05-09T07:08:33.888Z,12.75
2019-05-09T07:11:03.977Z,12.68
2019-05-09T07:13:34.053Z,12.68
2019-05-09T07:16:04.119Z,12.67
2019-05-09T07:18:34.185Z,12.61
2019-05-09T07:21:04.274Z,12.62
2019-05-09T07:23:34.350Z,12.60
2019-05-09T07:26:17.478Z,12.60
2019-05-09T07:28:48.352Z,12.56
2019-05-09T07:31:37.746Z,12.56
2019-05-09T07:34:14.916Z,12.58
2019-05-09T07:36:47.466Z,12.56
2019-05-09T07:39:17.585Z,12.50
2019-05-09T07:41:48.006Z,12.48
2019-05-09T07:44:18.404Z,12.38
2019-05-09T07:47:02.095Z,12.37
2019-05-09T07:49:37.578Z,12.35
2019-05-09T07:52:10.297Z,12.36
2019-05-09T07:54:38.771Z,12.29
2019-05-09T07:57:08.956Z,12.25
2019-05-09T07:59:39.098Z,12.19
2019-05-09T08:02:09.160Z,12.10
2019-05-09T08:04:39.247Z,12.05
2019-05-09T08:07:09.319Z,11.98
2019-05-09T08:09:39.403Z,12.00
2019-05-09T08:12:09.465Z,11.92
2019-05-09T08:14:39.538Z,11.89
2019-05-09T08:17:10.109Z,11.83
2019-05-09T08:19:40.181Z,11.93
2019-05-09T08:22:10.289Z,11.90
2019-05-09T08:24:40.428Z,12.00
2019-05-09T08:27:10.466Z,12.01
2019-05-09T08:29:40.542Z,12.00
2019-05-09T08:32:10.609Z,12.01
2019-05-09T08:34:40.686Z,12.04
2019-05-09T08:37:12.667Z,12.05
2019-05-09T08:39:42.524Z,12.01
2019-05-09T08:42:12.807Z,12.02
2019-05-09T08:44:42.887Z,11.87
2019-05-09T08:47:12.982Z,11.84
2019-05-09T08:49:58.677Z,11.87
2019-05-09T08:52:28.840Z,11.81
2019-05-09T08:54:59.393Z,11.83
2019-05-09T08:57:29.482Z,11.77
2019-05-09T08:59:59.569Z,11.77
2019-05-09T09:02:29.650Z,11.69
2019-05-09T09:04:59.786Z,11.61
2019-05-09T09:07:29.994Z,11.52
2019-05-09T09:10:00.161Z,11.50
2019-05-09T09:12:34.390Z,11.49
2019-05-09T09:15:02.096Z,11.49
2019-05-09T09:17:32.277Z,11.62
2019-05-09T09:20:02.426Z,11.70
2019-05-09T09:22:32.506Z,11.70
2019-05-09T09:25:02.617Z,11.53
2019-05-09T09:27:33.590Z,11.50
2019-05-09T09:30:17.832Z,11.56
2019-05-09T09:32:38.547Z,11.59
2019-05-09T09:35:08.103Z,11.67
2019-05-09T09:37:48.508Z,11.55
2019-05-09T09:40:10.163Z,11.59
2019-05-09T09:42:41.348Z,11.67
2019-05-09T09:45:11.534Z,11.63
2019-05-09T09:47:41.608Z,11.70
2019-05-09T09:50:12.297Z,11.62
2019-05-09T09:52:42.378Z,11.63
2019-05-09T09:55:12.679Z,11.64
2019-05-09T09:57:42.768Z,11.64
2019-05-09T10:00:20.969Z,11.62
2019-05-09T10:02:51.452Z,11.72
2019-05-09T10:05:21.553Z,11.71
2019-05-09T10:07:51.637Z,11.84
2019-05-09T10:10:33.161Z,11.74
2019-05-09T10:13:04.186Z,11.77
2019-05-09T10:15:39.152Z,11.85
2019-05-09T10:18:18.256Z,11.90
2019-05-09T10:20:58.457Z,11.95
2019-05-09T10:23:28.088Z,12.04
2019-05-09T10:25:58.349Z,12.07
2019-05-09T10:28:30.044Z,12.13
2019-05-09T10:31:00.593Z,12.10
2019-05-09T10:33:30.947Z,12.24
2019-05-09T10:36:04.528Z,12.33
2019-05-09T10:38:32.786Z,12.35
2019-05-09T10:41:02.898Z,12.36
2019-05-09T10:43:49.688Z,12.27
2019-05-09T10:46:48.322Z,12.40
2019-05-09T10:49:04.581Z,12.40
2019-05-09T10:51:34.675Z,12.33
2019-05-09T10:54:04.826Z,12.36
2019-05-09T10:56:34.930Z,12.40
2019-05-09T10:59:04.979Z,12.43
2019-05-09T11:01:35.074Z,12.46
2019-05-09T11:04:07.915Z,12.44
2019-05-09T11:06:38.282Z,12.43
2019-05-09T11:09:10.180Z,12.47
2019-05-09T11:11:40.444Z,12.52
2019-05-09T11:14:10.547Z,12.53
2019-05-09T11:16:46.158Z,12.52
2019-05-09T11:19:12.447Z,12.53
2019-05-09T11:21:42.490Z,12.51
2019-05-09T11:24:12.596Z,12.57
2019-05-09T11:26:42.617Z,12.61
2019-05-09T11:29:12.702Z,12.70
2019-05-09T11:31:42.778Z,12.82
2019-05-09T11:34:13.075Z,12.79
2019-05-09T11:36:43.277Z,12.67
2019-05-09T11:39:13.353Z,12.70
2019-05-09T11:41:43.451Z,12.71
2019-05-09T11:44:13.523Z,12.69
2019-05-09T11:46:43.602Z,12.79
2019-05-09T11:49:13.701Z,12.84
2019-05-09T11:51:43.787Z,12.71
2019-05-09T11:54:16.587Z,12.66
2019-05-09T11:56:48.012Z,12.64
2019-05-09T11:59:18.866Z,12.59
2019-05-09T12:01:49.296Z,12.57
2019-05-09T12:04:19.781Z,12.56
2019-05-09T12:06:49.868Z,12.67
2019-05-09T12:09:19.972Z,12.77
2019-05-09T12:11:50.023Z,12.86
2019-05-09T12:14:20.133Z,12.86
2019-05-09T12:16:50.216Z,12.80
2019-05-09T12:19:20.254Z,12.91
2019-05-09T12:21:50.347Z,12.91
2019-05-09T12:24:20.404Z,12.93
2019-05-09T12:26:50.505Z,12.91
2019-05-09T12:29:20.568Z,12.91
2019-05-09T12:31:50.664Z,12.89
2019-05-09T12:34:20.783Z,12.98
2019-05-09T12:36:50.898Z,12.97
2019-05-09T12:39:20.937Z,13.07
2019-05-09T12:41:51.069Z,13.15
2019-05-09T12:44:24.774Z,13.10
2019-05-09T12:46:52.925Z,13.00
2019-05-09T12:49:22.984Z,13.07
2019-05-09T12:51:53.103Z,13.14
2019-05-09T12:54:23.147Z,13.37
2019-05-09T12:56:53.254Z,13.58
2019-05-09T12:59:23.295Z,13.33
2019-05-09T13:01:53.389Z,13.37
2019-05-09T13:04:23.445Z,13.42
2019-05-09T13:06:53.558Z,13.52
2019-05-09T13:09:23.613Z,13.65
2019-05-09T13:11:53.717Z,13.92
2019-05-09T13:14:23.770Z,14.03
2019-05-09T13:16:57.421Z,13.98
2019-05-09T13:19:31.741Z,14.00
2019-05-09T13:22:01.858Z,13.83
2019-05-09T13:24:31.910Z,13.80
2019-05-09T13:27:02.028Z,13.81
2019-05-09T13:29:32.075Z,13.70
2019-05-09T13:32:02.180Z,13.64
2019-05-09T13:34:32.218Z,13.70
2019-05-09T13:37:02.319Z,13.76
2019-05-09T13:39:32.403Z,13.81
2019-05-09T13:42:02.540Z,13.58
2019-05-09T13:44:32.815Z,13.61
2019-05-09T13:47:02.988Z,13.68
2019-05-09T13:49:33.093Z,13.81
2019-05-09T13:52:05.044Z,13.93
2019-05-09T13:54:34.975Z,13.89
2019-05-09T13:57:05.224Z,13.84
2019-05-09T13:59:37.315Z,13.71
2019-05-09T14:02:07.174Z,13.70
2019-05-09T14:04:39.555Z,13.74
2019-05-09T14:07:09.536Z,13.72
2019-05-09T14:09:39.721Z,13.69
2019-05-09T14:12:10.570Z,13.67
2019-05-09T14:14:40.749Z,13.70
2019-05-09T14:17:13.777Z,13.65
2019-05-09T14:19:46.720Z,13.59
2019-05-09T14:22:14.554Z,13.59
2019-05-09T14:24:44.585Z,13.58
2019-05-09T14:27:14.701Z,13.65
2019-05-09T14:29:44.739Z,13.65
2019-05-09T14:32:14.846Z,13.63
2019-05-09T14:34:44.885Z,13.56
2019-05-09T14:37:14.983Z,13.67
2019-05-09T14:39:55.826Z,13.66
2019-05-09T14:42:18.901Z,13.62
2019-05-09T14:44:48.590Z,13.67
2019-05-09T14:47:18.889Z,13.55
2019-05-09T14:49:50.563Z,13.68
2019-05-09T14:52:23.539Z,13.79
2019-05-09T14:54:53.595Z,13.77
2019-05-09T14:57:28.652Z,13.71
2019-05-09T14:59:58.714Z,13.86
2019-05-09T15:02:28.818Z,13.84
2019-05-09T15:04:59.409Z,13.78
2019-05-09T15:07:29.654Z,13.65
2019-05-09T15:10:00.025Z,13.59
2019-05-09T15:12:30.283Z,13.62
2019-05-09T15:15:00.493Z,13.71
2019-05-09T15:17:30.718Z,13.66
2019-05-09T15:23:08.869Z,13.47
2019-05-09T15:25:48.089Z,13.50
2019-05-09T15:34:18.391Z,13.62
2019-05-09T15:36:48.426Z,13.70
2019-05-09T15:39:18.742Z,13.67
2019-05-09T15:41:48.829Z,13.68
2019-05-09T15:44:18.946Z,13.64
2019-05-09T15:46:53.399Z,13.69
2019-05-09T15:49:23.599Z,13.75
2019-05-09T15:51:53.908Z,13.80
2019-05-09T15:54:24.050Z,13.75
2019-05-09T15:56:54.143Z,13.60
2019-05-09T15:59:38.922Z,13.57
2019-05-09T16:02:04.992Z,13.56
2019-05-09T16:04:35.218Z,13.53
2019-05-09T16:07:05.297Z,13.65
2019-05-09T16:09:37.774Z,13.70
2019-05-09T16:12:07.817Z,13.68
2019-05-09T16:14:38.203Z,13.63
2019-05-09T16:17:08.474Z,13.68
2019-05-09T16:19:38.594Z,13.58
2019-05-09T16:22:08.681Z,13.61
2019-05-09T16:24:38.858Z,13.66
2019-05-09T16:27:08.962Z,13.64
2019-05-09T16:29:39.069Z,13.61
2019-05-09T16:32:09.204Z,13.65
2019-05-09T16:34:39.310Z,13.60
2019-05-09T16:37:09.390Z,13.66
2019-05-09T16:39:39.483Z,13.68
2019-05-09T16:42:09.589Z,13.71
2019-05-09T16:44:41.721Z,13.67
2019-05-09T16:47:11.496Z,13.64
2019-05-09T16:49:41.639Z,13.59
2019-05-09T16:52:11.716Z,13.62
2019-05-09T16:54:43.397Z,13.60
2019-05-09T16:57:13.492Z,13.56
2019-05-09T16:59:43.608Z,13.57
2019-05-09T17:02:21.375Z,13.51
2019-05-09T17:04:45.574Z,13.46
2019-05-09T17:07:17.926Z,13.31
2019-05-09T17:09:48.464Z,13.34
2019-05-09T17:12:18.787Z,13.36
2019-05-09T17:14:51.011Z,13.34
2019-05-09T17:17:23.626Z,13.33
2019-05-09T17:19:57.291Z,13.34
2019-05-09T17:22:47.407Z,13.29
2019-05-09T17:25:18.861Z,13.20
2019-05-09T17:27:49.761Z,13.07
2019-05-09T17:30:19.860Z,13.13
2019-05-09T17:32:54.194Z,13.11
2019-05-09T17:35:27.893Z,13.13
2019-05-09T17:37:58.617Z,13.10
2019-05-09T17:40:29.279Z,13.10
2019-05-09T17:43:01.936Z,13.13
2019-05-09T17:45:33.617Z,13.07
2019-05-09T17:48:04.313Z,13.10
2019-05-09T17:50:38.087Z,13.07
2019-05-09T17:53:12.354Z,13.10
2019-05-09T17:55:44.347Z,13.06
2019-05-09T17:58:29.101Z,13.03
2019-05-09T18:00:50.177Z,13.00
2019-05-09T18:03:21.165Z,12.95
2019-05-09T18:05:57.482Z,12.95
2019-05-09T18:08:28.339Z,12.95
2019-05-09T18:10:58.985Z,12.91
2019-05-09T18:13:31.797Z,12.90
2019-05-09T18:16:03.456Z,12.85
2019-05-09T18:18:34.863Z,12.79
2019-05-09T18:21:05.642Z,12.72
2019-05-09T18:26:59.826Z,12.69
2019-05-09T18:29:31.071Z,12.64
2019-05-09T18:34:53.722Z,12.56
2019-05-09T18:37:24.851Z,12.55
2019-05-09T18:40:01.737Z,12.53
2019-05-09T18:42:31.407Z,12.50
2019-05-09T18:45:17.550Z,12.48
2019-05-09T18:54:53.008Z,12.38
2019-05-09T18:57:24.992Z,12.31
2019-05-09T18:59:55.516Z,12.35
2019-05-09T19:02:26.880Z,12.30
2019-05-09T19:04:58.264Z,12.28
2019-05-09T19:07:30.397Z,12.25
2019-05-09T19:10:01.954Z,12.23
2019-05-09T19:12:32.597Z,12.13
2019-05-09T19:15:04.818Z,12.16
2019-05-09T19:17:45.185Z,12.08
2019-05-09T19:20:23.299Z,12.05
2019-05-09T19:22:53.702Z,12.02
2019-05-09T19:25:24.005Z,12.01
2019-05-09T19:27:54.089Z,11.98
2019-05-09T19:30:35.402Z,11.98
2019-05-09T19:33:02.806Z,11.91
2019-05-09T19:35:31.637Z,11.87
2019-05-09T19:38:01.990Z,11.88
2019-05-09T19:40:32.324Z,11.87
2019-05-09T19:43:02.704Z,11.81
2019-05-09T19:49:38.321Z,11.69
2019-05-09T20:02:35.336Z,11.30
2019-05-09T20:05:15.301Z,11.25
2019-05-09T20:19:13.570Z,11.08
2019-05-09T20:33:45.305Z,10.79
2019-05-09T20:39:44.996Z,10.74
2019-05-09T20:48:39.109Z,10.57
2019-05-09T20:54:30.329Z,10.52
2019-05-09T21:03:08.203Z,10.30
2019-05-09T21:05:38.527Z,10.28
2019-05-09T21:08:08.815Z,10.24
2019-05-09T21:10:39.096Z,10.15
2019-05-09T21:13:09.382Z,10.20
2019-05-09T21:15:39.763Z,10.15
2019-05-09T21:18:10.327Z,10.15
2019-05-09T21:20:40.820Z,10.17
2019-05-09T21:23:23.972Z,10.15
2019-05-09T21:25:43.076Z,10.13
2019-05-09T21:28:13.374Z,10.10
2019-05-09T21:30:44.327Z,10.09
2019-05-09T21:33:14.638Z,10.05
2019-05-09T21:35:44.714Z,10.00
2019-05-09T21:38:14.833Z,10.01
2019-05-09T21:40:45.219Z,9.90
2019-05-09T21:43:15.329Z,9.90
2019-05-09T21:45:45.415Z,9.85
2019-05-09T21:48:15.529Z,9.87
2019-05-09T21:50:45.607Z,9.86
2019-05-09T21:53:15.714Z,9.85
2019-05-09T21:55:45.841Z,9.80
2019-05-09T21:58:16.001Z,9.80
2019-05-09T22:00:48.992Z,9.77
2019-05-09T22:03:19.397Z,9.74
2019-05-09T22:05:49.571Z,9.71
2019-05-09T22:08:19.683Z,9.77
2019-05-09T22:10:49.754Z,9.67
2019-05-09T22:13:19.851Z,9.61
2019-05-09T22:15:50.076Z,9.64
2019-05-09T22:18:20.202Z,9.53
2019-05-09T22:20:50.257Z,9.50
2019-05-09T22:23:20.361Z,9.44
2019-05-09T22:25:50.419Z,9.43
2019-05-09T22:28:20.536Z,9.41
2019-05-09T22:30:50.604Z,9.43
2019-05-09T22:33:20.805Z,9.46
2019-05-09T22:35:50.878Z,9.51
2019-05-09T22:38:21.007Z,9.43
2019-05-09T22:40:51.090Z,9.37
2019-05-09T22:43:21.183Z,9.35
2019-05-09T22:45:51.570Z,9.34
2019-05-09T22:48:21.669Z,9.30
2019-05-09T22:50:51.712Z,9.26
2019-05-09T22:53:21.818Z,9.20
2019-05-09T22:55:51.850Z,9.10
2019-05-09T22:58:22.054Z,9.08
2019-05-09T23:00:52.090Z,9.13
2019-05-09T23:03:22.184Z,9.02
2019-05-09T23:05:52.261Z,9.01
2019-05-09T23:08:22.375Z,8.98
2019-05-09T23:10:53.583Z,8.95
2019-05-09T23:13:23.926Z,8.93
2019-05-09T23:15:54.007Z,8.78
2019-05-09T23:18:24.101Z,8.78
2019-05-09T23:20:55.275Z,8.80
2019-05-09T23:23:32.781Z,8.74
2019-05-09T23:26:02.843Z,8.74
2019-05-09T23:28:32.931Z,8.72
2019-05-09T23:31:04.568Z,8.70
2019-05-09T23:33:36.246Z,8.64
2019-05-09T23:36:06.320Z,8.61
2019-05-09T23:38:38.002Z,8.58
2019-05-09T23:41:08.249Z,8.58
2019-05-09T23:43:38.357Z,8.51
2019-05-09T23:46:08.433Z,8.41
2019-05-09T23:48:38.461Z,8.35
2019-05-09T23:51:08.546Z,8.29
2019-05-09T23:53:38.948Z,8.31
2019-05-09T23:56:26.760Z,8.31
2019-05-09T23:59:14.624Z,8.29
